Terminal Aerodrome Forecast
Issued by NWS Northern Indiana

Home | Current Version | Previous Version | Graphics & Text | Print | Product List | Glossary On
Versions: 1 2 3 4 5 6 7 8 9 10 11 12
000
FTUS43 KIWX 221728
TAFFWA
TAF
KFWA 221728Z 2218/2318 31006KT P6SM BKN035
     FM230000 23003KT P6SM BKN150
     FM231500 22010KT P6SM BKN070=

USA.gov is the U.S. government's official web portal to all federal, state and local government web resources and services.